createdAt,value
2022-08-27T00:00:19.731Z,18.42
2022-08-27T00:02:47.099Z,18.18
2022-08-27T00:05:15.928Z,17.82
2022-08-27T00:07:43.494Z,17.95
2022-08-27T00:10:14.839Z,17.90
2022-08-27T00:12:42.093Z,18.13
2022-08-27T00:15:09.417Z,18.10
2022-08-27T00:17:39.332Z,18.28
2022-08-27T00:20:06.727Z,18.24
2022-08-27T00:22:33.421Z,17.92
2022-08-27T00:25:00.107Z,17.87
2022-08-27T00:27:27.051Z,17.80
2022-08-27T00:29:53.701Z,17.85
2022-08-27T00:32:20.377Z,17.81
2022-08-27T00:34:47.045Z,17.71
2022-08-27T00:37:13.899Z,17.59
2022-08-27T00:39:40.564Z,17.21
2022-08-27T00:42:07.929Z,17.12
2022-08-27T00:44:34.740Z,16.94
2022-08-27T00:47:06.967Z,17.20
2022-08-27T00:49:42.847Z,17.51
2022-08-27T00:52:29.007Z,16.98
2022-08-27T00:55:08.500Z,17.24
2022-08-27T00:57:38.111Z,17.31
2022-08-27T01:00:08.138Z,17.81
2022-08-27T01:02:35.145Z,17.61
2022-08-27T01:05:12.023Z,17.86
2022-08-27T01:07:43.223Z,17.68
2022-08-27T01:10:18.052Z,17.72
2022-08-27T01:12:45.404Z,17.71
2022-08-27T01:15:21.737Z,17.69
2022-08-27T01:17:49.229Z,17.72
2022-08-27T01:20:20.982Z,17.62
2022-08-27T01:23:00.446Z,17.04
2022-08-27T01:25:28.180Z,17.16
2022-08-27T01:27:58.905Z,17.26
2022-08-27T01:30:25.970Z,17.30
2022-08-27T01:32:53.559Z,17.46
2022-08-27T01:35:21.468Z,17.47
2022-08-27T01:37:52.445Z,17.23
2022-08-27T01:40:19.578Z,17.06
2022-08-27T01:42:50.214Z,17.49
2022-08-27T01:48:12.156Z,16.98
2022-08-27T01:50:40.668Z,16.75
2022-08-27T01:53:11.814Z,17.23
2022-08-27T01:55:40.372Z,17.21
2022-08-27T01:58:10.389Z,16.94
2022-08-27T02:00:44.614Z,16.96
2022-08-27T02:03:12.386Z,17.26
2022-08-27T02:05:44.998Z,17.07
2022-08-27T02:08:13.532Z,17.06
2022-08-27T02:10:40.454Z,17.19
2022-08-27T02:13:07.984Z,17.00
2022-08-27T02:15:35.870Z,16.46
2022-08-27T02:18:05.616Z,16.78
2022-08-27T02:20:32.830Z,16.68
2022-08-27T02:22:59.684Z,16.62
2022-08-27T02:25:26.867Z,16.38
2022-08-27T02:27:58.407Z,16.71
2022-08-27T02:30:25.191Z,16.31
2022-08-27T02:32:52.343Z,16.26
2022-08-27T02:35:21.657Z,16.39
2022-08-27T02:37:48.436Z,16.60
2022-08-27T02:40:17.396Z,16.07
2022-08-27T02:42:44.957Z,16.57
2022-08-27T02:45:12.947Z,16.55
2022-08-27T02:47:39.516Z,15.85
2022-08-27T02:50:07.491Z,16.23
2022-08-27T02:52:34.315Z,16.32
2022-08-27T02:55:01.574Z,16.35
2022-08-27T02:57:28.246Z,16.03
2022-08-27T02:59:55.068Z,16.08
2022-08-27T03:02:24.573Z,16.19
2022-08-27T03:04:54.320Z,16.36
2022-08-27T03:07:20.939Z,16.88
2022-08-27T03:09:47.589Z,16.86
2022-08-27T03:12:14.178Z,16.79
2022-08-27T03:14:40.953Z,17.12
2022-08-27T03:17:07.550Z,17.10
2022-08-27T03:19:34.548Z,17.26
2022-08-27T03:22:01.163Z,17.16
2022-08-27T03:24:27.888Z,17.26
2022-08-27T03:26:56.153Z,17.28
2022-08-27T03:29:22.923Z,17.46
2022-08-27T03:31:49.501Z,17.23
2022-08-27T03:34:19.873Z,17.36
2022-08-27T03:36:46.932Z,17.25
2022-08-27T03:39:13.774Z,17.72
2022-08-27T03:41:54.513Z,17.71
2022-08-27T03:44:24.016Z,17.41
2022-08-27T03:46:52.075Z,17.37
2022-08-27T03:49:21.454Z,17.37
2022-08-27T03:51:52.577Z,17.27
2022-08-27T03:54:19.870Z,17.15
2022-08-27T03:56:46.706Z,17.37
2022-08-27T03:59:13.559Z,17.27
2022-08-27T04:01:40.167Z,17.47
2022-08-27T04:04:06.877Z,17.34
2022-08-27T04:06:34.833Z,17.15
2022-08-27T04:09:02.304Z,17.49
2022-08-27T04:11:28.912Z,16.96
2022-08-27T04:13:56.579Z,17.67
2022-08-27T04:16:23.237Z,17.28
2022-08-27T04:18:49.888Z,17.02
2022-08-27T04:21:16.498Z,16.75
2022-08-27T04:23:43.784Z,17.12
2022-08-27T04:26:11.284Z,17.21
2022-08-27T04:28:39.000Z,16.94
2022-08-27T04:31:12.855Z,16.81
2022-08-27T04:33:51.053Z,16.67
2022-08-27T04:36:18.703Z,16.81
2022-08-27T04:38:45.766Z,16.83
2022-08-27T04:41:12.633Z,16.79
2022-08-27T04:43:39.645Z,17.01
2022-08-27T04:46:09.889Z,16.41
2022-08-27T04:48:36.521Z,16.92
2022-08-27T04:51:05.584Z,16.89
2022-08-27T04:53:33.397Z,16.89
2022-08-27T04:56:00.155Z,17.11
2022-08-27T04:58:26.804Z,17.00
2022-08-27T05:00:57.108Z,16.93
2022-08-27T05:03:24.553Z,16.65
2022-08-27T05:05:52.594Z,16.96
2022-08-27T05:08:19.343Z,16.79
2022-08-27T05:10:48.694Z,17.12
2022-08-27T05:13:16.449Z,16.40
2022-08-27T05:15:43.087Z,16.63
2022-08-27T05:18:10.190Z,16.80
2022-08-27T05:20:48.358Z,17.19
2022-08-27T05:23:18.421Z,17.23
2022-08-27T05:25:47.815Z,16.93
2022-08-27T05:28:16.737Z,17.11
2022-08-27T05:30:52.296Z,16.80
2022-08-27T05:33:25.356Z,16.96
2022-08-27T05:35:54.935Z,16.59
2022-08-27T05:38:23.486Z,16.55
2022-08-27T05:40:50.222Z,16.28
2022-08-27T05:43:18.429Z,16.52
2022-08-27T05:45:48.518Z,16.37
2022-08-27T05:48:16.735Z,16.67
2022-08-27T05:50:44.866Z,16.72
2022-08-27T05:53:12.966Z,16.51
2022-08-27T05:55:44.378Z,16.02
2022-08-27T05:58:13.247Z,16.42
2022-08-27T06:00:39.858Z,16.38
2022-08-27T06:03:07.450Z,16.34
2022-08-27T06:05:34.658Z,16.23
2022-08-27T06:08:01.291Z,16.29
2022-08-27T06:10:28.043Z,16.50
2022-08-27T06:12:56.988Z,16.50
2022-08-27T06:15:23.928Z,16.33
2022-08-27T06:17:50.609Z,16.57
2022-08-27T06:20:17.273Z,16.16
2022-08-27T06:22:44.125Z,15.88
2022-08-27T06:25:10.788Z,15.94
2022-08-27T06:27:37.439Z,15.91
2022-08-27T06:30:04.615Z,15.78
2022-08-27T06:32:31.528Z,16.12
2022-08-27T06:34:58.279Z,16.23
2022-08-27T06:37:25.009Z,15.61
2022-08-27T06:39:51.689Z,15.90
2022-08-27T06:42:18.461Z,15.15
2022-08-27T06:44:52.962Z,15.77
2022-08-27T06:47:21.294Z,15.93
2022-08-27T06:49:47.976Z,16.38
2022-08-27T06:52:15.486Z,16.52
2022-08-27T06:54:42.087Z,16.07
2022-08-27T06:57:08.748Z,16.21
2022-08-27T06:59:35.536Z,16.61
2022-08-27T07:02:03.064Z,16.63
2022-08-27T07:04:32.737Z,16.82
2022-08-27T07:07:01.101Z,16.92
2022-08-27T07:09:27.861Z,16.68
2022-08-27T07:11:54.460Z,16.69
2022-08-27T07:14:21.083Z,16.60
2022-08-27T07:16:48.245Z,16.30
2022-08-27T07:19:16.119Z,16.35
2022-08-27T07:21:44.209Z,16.79
2022-08-27T07:24:10.811Z,16.64
2022-08-27T07:26:40.802Z,16.98
2022-08-27T07:29:10.090Z,17.00
2022-08-27T07:31:37.457Z,16.40
2022-08-27T07:34:05.553Z,16.27
2022-08-27T07:36:33.680Z,16.52
2022-08-27T07:39:01.978Z,16.41
2022-08-27T07:41:33.004Z,15.95
2022-08-27T07:44:00.722Z,15.89
2022-08-27T07:46:27.470Z,15.88
2022-08-27T07:48:55.272Z,15.98
2022-08-27T07:51:23.699Z,16.58
2022-08-27T07:53:50.447Z,16.55
2022-08-27T07:56:17.765Z,16.38
2022-08-27T07:58:45.338Z,16.33
2022-08-27T08:01:13.312Z,16.07
2022-08-27T08:03:41.167Z,16.19
2022-08-27T08:06:14.364Z,16.11
2022-08-27T08:08:41.641Z,15.97
2022-08-27T08:11:12.499Z,15.55
2022-08-27T08:13:39.766Z,16.09
2022-08-27T08:16:07.010Z,15.93
2022-08-27T08:18:34.529Z,16.06
2022-08-27T08:21:07.140Z,16.25
2022-08-27T08:23:33.920Z,15.91
2022-08-27T08:26:01.429Z,16.62
2022-08-27T08:28:28.870Z,16.13
2022-08-27T08:30:56.444Z,15.82
2022-08-27T08:33:23.439Z,16.07
2022-08-27T08:35:50.197Z,15.79
2022-08-27T08:38:18.462Z,15.86
2022-08-27T08:40:50.548Z,16.21
2022-08-27T08:43:23.951Z,16.22
2022-08-27T08:45:51.631Z,16.60
2022-08-27T08:48:22.174Z,16.40
2022-08-27T08:51:13.021Z,15.94
2022-08-27T08:54:03.412Z,16.28
2022-08-27T08:56:54.950Z,16.23
2022-08-27T08:59:44.461Z,15.87
2022-08-27T09:02:13.724Z,15.73
2022-08-27T09:04:42.227Z,15.74
2022-08-27T09:07:36.053Z,15.57
2022-08-27T09:10:13.967Z,15.99
2022-08-27T09:12:40.959Z,16.34
2022-08-27T09:15:29.679Z,16.07
2022-08-27T09:18:14.296Z,16.18
2022-08-27T09:20:46.202Z,16.13
2022-08-27T09:23:26.491Z,16.60
2022-08-27T09:25:53.297Z,16.39
2022-08-27T09:28:24.912Z,16.79
2022-08-27T09:30:53.057Z,16.53
2022-08-27T09:33:19.968Z,16.69
2022-08-27T09:35:46.942Z,17.02
2022-08-27T09:38:59.807Z,17.23
2022-08-27T09:41:30.561Z,17.33
2022-08-27T09:44:11.335Z,17.43
2022-08-27T09:46:38.174Z,17.35
2022-08-27T09:49:16.051Z,17.46
2022-08-27T09:51:45.508Z,17.07
2022-08-27T09:54:22.364Z,17.45
2022-08-27T09:56:50.037Z,17.05
2022-08-27T09:59:21.644Z,17.60
2022-08-27T10:02:07.714Z,17.78
2022-08-27T10:04:51.246Z,17.36
2022-08-27T10:07:37.020Z,17.69
2022-08-27T10:10:06.662Z,17.88
2022-08-27T10:12:46.975Z,17.51
2022-08-27T10:15:14.675Z,17.34
2022-08-27T10:18:09.034Z,18.02
2022-08-27T10:20:47.391Z,17.85
2022-08-27T10:23:26.414Z,17.88
2022-08-27T10:26:20.012Z,18.16
2022-08-27T10:29:09.265Z,17.55
2022-08-27T10:31:45.017Z,17.96
2022-08-27T10:34:25.062Z,17.98
2022-08-27T10:36:59.888Z,18.11
2022-08-27T10:39:46.462Z,18.39
2022-08-27T10:42:38.169Z,18.47
2022-08-27T10:45:31.091Z,18.34
2022-08-27T10:48:15.697Z,18.26
2022-08-27T10:51:11.343Z,17.78
2022-08-27T10:53:53.676Z,17.98
2022-08-27T10:56:35.939Z,17.68
2022-08-27T10:59:25.383Z,17.06
2022-08-27T11:02:13.441Z,17.37
2022-08-27T11:04:45.301Z,17.41
2022-08-27T11:07:38.013Z,17.39
2022-08-27T11:10:14.354Z,16.89
2022-08-27T11:12:45.876Z,17.13
2022-08-27T11:15:15.575Z,17.20
2022-08-27T11:17:48.289Z,17.23
2022-08-27T11:20:28.111Z,16.99
2022-08-27T11:23:08.892Z,16.89
2022-08-27T11:25:43.261Z,17.41
2022-08-27T11:28:11.794Z,17.18
2022-08-27T11:30:52.777Z,17.24
2022-08-27T11:33:41.652Z,17.38
2022-08-27T11:36:29.356Z,17.88
2022-08-27T11:39:22.910Z,17.47
2022-08-27T11:42:09.468Z,17.84
2022-08-27T11:44:42.312Z,17.61
2022-08-27T11:47:21.855Z,17.32
2022-08-27T11:49:58.063Z,16.87
2022-08-27T11:52:41.717Z,16.93
2022-08-27T11:55:20.495Z,17.06
2022-08-27T11:57:50.060Z,17.02
2022-08-27T12:00:30.631Z,17.08
2022-08-27T12:03:03.436Z,17.54
2022-08-27T12:05:36.240Z,17.81
2022-08-27T12:08:33.881Z,17.99
2022-08-27T12:11:44.638Z,17.84
2022-08-27T12:14:17.148Z,17.95
2022-08-27T12:16:56.100Z,17.45
2022-08-27T12:19:55.069Z,18.37
2022-08-27T12:22:39.631Z,18.67
2022-08-27T12:25:06.413Z,18.49
2022-08-27T12:27:34.846Z,18.54
2022-08-27T12:30:23.982Z,18.35
2022-08-27T12:32:51.778Z,17.95
2022-08-27T12:35:20.185Z,18.30
2022-08-27T12:37:57.731Z,18.35
2022-08-27T12:40:27.196Z,18.18
2022-08-27T12:43:14.490Z,18.78
2022-08-27T12:45:49.137Z,19.10
2022-08-27T12:48:22.420Z,18.87
2022-08-27T12:50:55.998Z,18.57
2022-08-27T12:53:41.466Z,18.89
2022-08-27T12:56:28.461Z,19.13
2022-08-27T12:59:04.363Z,19.13
2022-08-27T13:01:52.650Z,19.06
2022-08-27T13:04:30.020Z,18.84
2022-08-27T13:06:57.310Z,18.63
2022-08-27T13:09:33.913Z,18.33
2022-08-27T13:12:03.125Z,18.77
2022-08-27T13:14:37.951Z,18.57
2022-08-27T13:17:09.750Z,18.65
2022-08-27T13:19:44.350Z,18.68
2022-08-27T13:22:11.131Z,18.51
2022-08-27T13:24:50.061Z,18.67
2022-08-27T13:27:27.003Z,18.52
2022-08-27T13:29:55.636Z,17.74
2022-08-27T13:32:24.619Z,17.41
2022-08-27T13:34:51.722Z,18.04
2022-08-27T13:37:34.722Z,18.58
2022-08-27T13:40:01.722Z,18.54
2022-08-27T13:42:28.647Z,18.67
2022-08-27T13:45:06.135Z,18.84
2022-08-27T13:47:42.268Z,18.39
2022-08-27T13:50:22.557Z,17.78
2022-08-27T13:52:50.473Z,17.78
2022-08-27T13:55:17.915Z,17.54
2022-08-27T13:57:47.842Z,18.00
2022-08-27T14:00:23.388Z,16.90
2022-08-27T14:02:55.659Z,17.41
2022-08-27T14:05:23.113Z,17.69
2022-08-27T14:07:52.816Z,17.33
2022-08-27T14:10:43.701Z,17.42
2022-08-27T14:13:16.357Z,17.51
2022-08-27T14:15:55.202Z,17.80
2022-08-27T14:18:48.094Z,17.87
2022-08-27T14:21:13.271Z,17.46
2022-08-27T14:23:39.923Z,17.57
2022-08-27T14:26:08.138Z,17.64
2022-08-27T14:28:34.792Z,18.43
2022-08-27T14:31:01.650Z,18.20
2022-08-27T14:33:28.289Z,17.39
2022-08-27T14:35:55.124Z,18.09
2022-08-27T14:38:24.209Z,18.21
2022-08-27T14:40:54.099Z,17.86
2022-08-27T14:43:21.346Z,17.74
2022-08-27T14:45:52.177Z,17.69
2022-08-27T14:48:28.530Z,17.51
2022-08-27T14:50:56.829Z,17.50
2022-08-27T14:53:23.702Z,17.82
2022-08-27T14:55:51.535Z,17.58
2022-08-27T14:58:19.756Z,17.46
2022-08-27T15:00:46.935Z,17.37
2022-08-27T15:03:13.620Z,17.10
2022-08-27T15:05:40.383Z,17.13
2022-08-27T15:08:12.694Z,17.24
2022-08-27T15:10:39.971Z,17.39
2022-08-27T15:13:06.809Z,17.20
2022-08-27T15:15:33.623Z,17.02
2022-08-27T15:18:00.316Z,16.89
2022-08-27T15:20:27.136Z,17.30
2022-08-27T15:22:53.758Z,17.16
2022-08-27T15:25:20.861Z,17.39
2022-08-27T15:27:47.587Z,17.05
2022-08-27T15:30:16.285Z,16.98
2022-08-27T15:32:46.519Z,17.19
2022-08-27T15:35:16.613Z,17.16
2022-08-27T15:37:43.820Z,17.06
2022-08-27T15:40:13.875Z,16.90
2022-08-27T15:42:41.004Z,16.65
2022-08-27T15:45:09.134Z,17.09
2022-08-27T15:47:35.827Z,16.75
2022-08-27T15:50:02.435Z,17.05
2022-08-27T15:52:41.082Z,16.93
2022-08-27T15:55:18.889Z,16.84
2022-08-27T15:57:45.531Z,16.61
2022-08-27T16:00:12.636Z,16.77
2022-08-27T16:02:41.221Z,17.38
2022-08-27T16:05:07.908Z,17.33
2022-08-27T16:07:34.490Z,17.04
2022-08-27T16:10:01.081Z,17.07
2022-08-27T16:12:27.844Z,16.96
2022-08-27T16:14:55.530Z,17.08
2022-08-27T16:17:23.969Z,17.13
2022-08-27T16:19:50.657Z,16.79
2022-08-27T16:22:17.283Z,16.84
2022-08-27T16:24:44.608Z,15.56
2022-08-27T16:27:11.535Z,16.61
2022-08-27T16:29:38.347Z,16.13
2022-08-27T16:32:10.772Z,16.06
2022-08-27T16:34:37.506Z,15.94
2022-08-27T16:37:04.025Z,16.19
2022-08-27T16:39:33.845Z,15.59
2022-08-27T16:42:03.306Z,15.59
2022-08-27T16:44:29.997Z,15.82
2022-08-27T16:46:56.677Z,15.71
2022-08-27T16:49:23.237Z,15.97
2022-08-27T16:51:53.214Z,15.98
2022-08-27T16:54:19.987Z,15.56
2022-08-27T16:56:46.754Z,16.06
2022-08-27T16:59:13.332Z,15.88
2022-08-27T17:01:41.931Z,15.45
2022-08-27T17:04:14.830Z,16.22
2022-08-27T17:06:45.599Z,15.66
2022-08-27T17:09:12.583Z,15.79
2022-08-27T17:11:41.883Z,15.84
2022-08-27T17:14:09.838Z,15.42
2022-08-27T17:16:37.069Z,15.18
2022-08-27T17:19:05.578Z,15.39
2022-08-27T17:21:33.919Z,15.83
2022-08-27T17:24:01.133Z,15.37
2022-08-27T17:26:29.032Z,15.57
2022-08-27T17:28:55.868Z,15.78
2022-08-27T17:31:32.230Z,16.12
2022-08-27T17:34:00.087Z,16.47
2022-08-27T17:36:29.134Z,16.35
2022-08-27T17:38:56.507Z,16.60
2022-08-27T17:41:43.095Z,16.83
2022-08-27T17:44:20.012Z,16.75
2022-08-27T17:46:47.715Z,16.98
2022-08-27T17:49:14.397Z,16.99
2022-08-27T17:51:41.397Z,17.16
2022-08-27T17:54:25.460Z,17.40
2022-08-27T17:56:52.173Z,17.35
2022-08-27T17:59:18.817Z,17.12
2022-08-27T18:01:45.963Z,16.81
2022-08-27T18:04:12.849Z,16.39
2022-08-27T18:06:40.023Z,16.57
2022-08-27T18:09:06.970Z,16.05
2022-08-27T18:11:37.079Z,16.54
2022-08-27T18:14:05.039Z,16.57
2022-08-27T18:16:48.371Z,17.17
2022-08-27T18:19:24.744Z,14.57
2022-08-27T18:21:57.065Z,16.38
2022-08-27T18:24:23.814Z,17.48
2022-08-27T18:26:54.134Z,15.25
2022-08-27T18:29:21.094Z,16.66
2022-08-27T18:31:47.776Z,16.40
2022-08-27T18:34:20.048Z,17.51
2022-08-27T18:36:48.144Z,16.65
2022-08-27T18:39:14.755Z,16.01
2022-08-27T18:41:42.347Z,17.37
2022-08-27T18:44:16.956Z,16.42
2022-08-27T18:46:45.478Z,15.88
2022-08-27T18:49:12.116Z,15.88
2022-08-27T18:54:24.285Z,15.93
2022-08-27T18:56:51.117Z,16.12
2022-08-27T18:59:20.785Z,15.51
2022-08-27T19:01:50.653Z,16.11
2022-08-27T19:04:17.364Z,16.33
2022-08-27T19:06:44.014Z,15.43
2022-08-27T19:09:10.830Z,15.35
2022-08-27T19:11:38.549Z,16.60
2022-08-27T19:14:05.210Z,16.07
2022-08-27T19:16:46.096Z,17.05
2022-08-27T19:19:17.675Z,16.74
2022-08-27T19:21:49.239Z,16.96
2022-08-27T19:24:20.182Z,16.65
2022-08-27T19:26:48.230Z,15.58
2022-08-27T19:29:18.156Z,16.14
2022-08-27T19:31:48.905Z,16.22
2022-08-27T19:34:15.549Z,15.85
2022-08-27T19:36:43.379Z,16.57
2022-08-27T19:39:12.493Z,16.16
2022-08-27T19:41:39.568Z,15.21
2022-08-27T19:44:06.263Z,16.00
2022-08-27T19:46:33.485Z,16.50
2022-08-27T19:49:00.081Z,16.21
2022-08-27T19:51:26.819Z,16.45
2022-08-27T19:53:54.050Z,16.08
2022-08-27T19:56:21.299Z,16.40
2022-08-27T19:58:48.115Z,16.52
2022-08-27T20:01:15.108Z,16.28
2022-08-27T20:03:42.032Z,15.24
2022-08-27T20:06:09.250Z,15.43
2022-08-27T20:08:35.928Z,15.52
2022-08-27T20:11:02.718Z,15.94
2022-08-27T20:13:33.044Z,15.75
2022-08-27T20:16:00.349Z,15.94
2022-08-27T20:18:27.003Z,16.04
2022-08-27T20:20:53.719Z,16.06
2022-08-27T20:23:20.805Z,15.34
2022-08-27T20:25:47.464Z,16.27
2022-08-27T20:28:37.800Z,15.73
2022-08-27T20:31:02.389Z,16.47
2022-08-27T20:33:29.010Z,16.00
2022-08-27T20:35:58.515Z,16.76
2022-08-27T20:38:25.750Z,16.59
2022-08-27T20:40:52.434Z,16.42
2022-08-27T20:43:19.063Z,15.87
2022-08-27T20:45:46.239Z,16.49
2022-08-27T20:48:13.286Z,15.88
2022-08-27T20:50:42.206Z,15.82
2022-08-27T20:53:09.087Z,16.55
2022-08-27T20:55:35.800Z,16.41
2022-08-27T20:58:11.895Z,15.96
2022-08-27T21:00:41.457Z,16.29
2022-08-27T21:03:09.950Z,16.24
2022-08-27T21:05:38.002Z,15.50
2022-08-27T21:08:06.536Z,15.70
2022-08-27T21:10:33.911Z,16.36
2022-08-27T21:13:05.266Z,16.42
2022-08-27T21:15:33.489Z,16.22
2022-08-27T21:18:00.130Z,16.24
2022-08-27T21:20:26.771Z,16.04
2022-08-27T21:22:53.479Z,16.47
2022-08-27T21:25:20.156Z,16.28
2022-08-27T21:27:46.764Z,15.85
2022-08-27T21:30:13.744Z,15.75
2022-08-27T21:32:40.327Z,16.22
2022-08-27T21:35:07.252Z,16.41
2022-08-27T21:37:34.559Z,15.94
2022-08-27T21:40:01.400Z,16.30
2022-08-27T21:42:27.993Z,15.97
2022-08-27T21:44:54.919Z,15.34
2022-08-27T21:47:21.459Z,15.77
2022-08-27T21:49:48.295Z,15.85
2022-08-27T21:52:15.401Z,15.80
2022-08-27T21:54:42.268Z,15.74
2022-08-27T21:57:10.717Z,16.18
2022-08-27T21:59:44.702Z,15.91
2022-08-27T22:02:35.895Z,16.28
2022-08-27T22:04:58.388Z,15.96
2022-08-27T22:07:24.927Z,16.44
2022-08-27T22:09:51.490Z,16.32
2022-08-27T22:12:18.101Z,16.23
2022-08-27T22:14:44.849Z,15.96
2022-08-27T22:17:11.465Z,16.13
2022-08-27T22:19:38.133Z,15.92
2022-08-27T22:22:04.666Z,16.23
2022-08-27T22:24:31.326Z,15.97
2022-08-27T22:26:57.959Z,16.13
2022-08-27T22:29:24.564Z,16.03
2022-08-27T22:31:51.146Z,15.55
2022-08-27T22:34:18.151Z,15.73
2022-08-27T22:36:44.759Z,15.84
2022-08-27T22:39:11.332Z,15.79
2022-08-27T22:41:38.307Z,16.15
2022-08-27T22:44:08.468Z,16.07
2022-08-27T22:46:35.098Z,16.26
2022-08-27T22:49:01.880Z,16.21
2022-08-27T22:51:28.422Z,15.64
2022-08-27T22:53:55.103Z,15.85
2022-08-27T22:56:21.698Z,15.92
2022-08-27T22:58:48.470Z,16.09
2022-08-27T23:01:21.036Z,16.30
2022-08-27T23:03:48.795Z,15.89
2022-08-27T23:06:15.575Z,15.67
2022-08-27T23:08:42.228Z,15.84
2022-08-27T23:11:08.864Z,15.81
2022-08-27T23:13:35.652Z,15.83
2022-08-27T23:16:02.751Z,16.04
2022-08-27T23:18:29.754Z,15.88
2022-08-27T23:20:56.583Z,16.12
2022-08-27T23:23:24.427Z,16.00
2022-08-27T23:25:56.544Z,16.11
2022-08-27T23:28:23.285Z,16.16
2022-08-27T23:30:50.259Z,15.87
2022-08-27T23:33:17.208Z,16.08
2022-08-27T23:35:43.896Z,15.67
2022-08-27T23:38:10.865Z,15.94
2022-08-27T23:40:37.797Z,15.55
2022-08-27T23:43:04.451Z,15.86
2022-08-27T23:45:31.138Z,15.91
2022-08-27T23:47:57.740Z,16.05
2022-08-27T23:50:33.678Z,15.87
2022-08-27T23:53:02.719Z,15.69
2022-08-27T23:55:29.430Z,15.95
2022-08-27T23:57:56.081Z,15.89
